createdAt,value
2016-07-09T00:00:46.788Z,0
2016-07-09T00:01:45.318Z,0
2016-07-09T00:02:45.423Z,0
2016-07-09T00:03:45.975Z,0
2016-07-09T00:04:47.173Z,0
2016-07-09T00:05:46.080Z,0
2016-07-09T00:06:47.673Z,0
2016-07-09T00:07:46.798Z,0
2016-07-09T00:08:45.407Z,0
2016-07-09T00:09:45.545Z,0
2016-07-09T00:10:46.090Z,0
2016-07-09T00:11:48.893Z,0
2016-07-09T00:12:46.155Z,0
2016-07-09T00:13:46.205Z,0
2016-07-09T00:14:45.457Z,0
2016-07-09T00:15:46.069Z,0
2016-07-09T00:16:46.263Z,0
2016-07-09T00:17:45.475Z,0
2016-07-09T00:18:46.232Z,0
2016-07-09T00:19:46.072Z,0
2016-07-09T00:20:46.178Z,0
2016-07-09T00:21:45.111Z,0
2016-07-09T00:22:46.287Z,0
2016-07-09T00:23:45.563Z,0
2016-07-09T00:24:46.107Z,0
2016-07-09T00:25:46.826Z,0
2016-07-09T00:26:46.825Z,0
2016-07-09T00:27:46.165Z,0
2016-07-09T00:28:46.036Z,0
2016-07-09T00:29:45.039Z,0
2016-07-09T00:30:45.064Z,0
2016-07-09T00:31:44.973Z,0
2016-07-09T00:32:46.308Z,0
2016-07-09T00:33:45.543Z,0
2016-07-09T00:34:45.550Z,0
2016-07-09T00:35:45.596Z,0
2016-07-09T00:36:47.186Z,0
2016-07-09T00:37:45.766Z,0
2016-07-09T00:38:45.684Z,0
2016-07-09T00:39:45.622Z,0
2016-07-09T00:40:46.856Z,0
2016-07-09T00:41:45.628Z,0
2016-07-09T00:42:46.342Z,0
2016-07-09T00:43:47.515Z,0
2016-07-09T00:44:46.169Z,0
2016-07-09T00:45:47.455Z,0
2016-07-09T00:46:45.747Z,0
2016-07-09T00:47:46.371Z,0
2016-07-09T00:48:47.773Z,0
2016-07-09T00:49:45.786Z,0
2016-07-09T00:50:46.912Z,0
2016-07-09T00:51:46.262Z,0
2016-07-09T00:52:45.646Z,0
2016-07-09T00:53:46.864Z,0
2016-07-09T00:54:45.094Z,0
2016-07-09T00:55:46.386Z,0
2016-07-09T00:56:46.462Z,0
2016-07-09T00:57:46.422Z,0
2016-07-09T00:58:47.872Z,0
2016-07-09T00:59:45.726Z,0
2016-07-09T01:00:45.788Z,0
2016-07-09T01:01:46.478Z,0
2016-07-09T01:02:46.413Z,0
2016-07-09T01:03:44.508Z,0
2016-07-09T01:04:46.491Z,0
2016-07-09T01:05:47.124Z,0
2016-07-09T01:06:47.040Z,0
2016-07-09T01:07:47.108Z,0
2016-07-09T01:08:46.601Z,0
2016-07-09T01:09:45.976Z,0
2016-07-09T01:10:46.453Z,0
2016-07-09T01:11:46.158Z,0
2016-07-09T01:12:47.158Z,0
2016-07-09T01:13:45.843Z,0
2016-07-09T01:14:46.408Z,0
2016-07-09T01:15:47.068Z,0
2016-07-09T01:16:47.293Z,0
2016-07-09T01:17:45.906Z,0
2016-07-09T01:18:46.478Z,0
2016-07-09T01:19:47.175Z,0
2016-07-09T01:20:46.481Z,0
2016-07-09T01:21:46.390Z,0
2016-07-09T01:22:47.342Z,0
2016-07-09T01:23:46.507Z,0
2016-07-09T01:24:46.613Z,0
2016-07-09T01:25:47.284Z,0
2016-07-09T01:26:47.169Z,0
2016-07-09T01:27:47.186Z,0
2016-07-09T01:28:46.664Z,0
2016-07-09T01:29:47.962Z,0
2016-07-09T01:30:46.508Z,0
2016-07-09T01:31:46.014Z,0
2016-07-09T01:32:45.982Z,0
2016-07-09T01:33:46.017Z,0
2016-07-09T01:34:47.370Z,0
2016-07-09T01:35:46.615Z,0
2016-07-09T01:36:47.186Z,0
2016-07-09T01:37:45.952Z,0
2016-07-09T01:38:46.679Z,0
2016-07-09T01:39:45.984Z,0
2016-07-09T01:40:46.023Z,0
2016-07-09T01:41:47.290Z,0
2016-07-09T01:42:46.829Z,0
2016-07-09T01:43:46.020Z,0
2016-07-09T01:44:48.203Z,0
2016-07-09T01:45:47.327Z,0
2016-07-09T01:46:46.584Z,0
2016-07-09T01:47:48.293Z,0
2016-07-09T01:48:46.672Z,0
2016-07-09T01:49:46.792Z,0
2016-07-09T01:50:47.358Z,0
2016-07-09T01:51:46.741Z,0
2016-07-09T01:52:48.667Z,0
2016-07-09T01:53:47.372Z,0
2016-07-09T01:54:45.367Z,0
2016-07-09T01:55:47.080Z,0
2016-07-09T01:56:46.026Z,0
2016-07-09T01:57:47.349Z,0
2016-07-09T01:58:45.546Z,0
2016-07-09T01:59:46.751Z,0
2016-07-09T02:00:48.922Z,0
2016-07-09T02:01:46.987Z,0
2016-07-09T02:02:46.147Z,0
2016-07-09T02:03:46.945Z,0
2016-07-09T02:04:46.873Z,0
2016-07-09T02:05:46.095Z,0
2016-07-09T02:06:46.113Z,0
2016-07-09T02:07:46.884Z,0
2016-07-09T02:08:47.731Z,0
2016-07-09T02:09:47.691Z,0
2016-07-09T02:10:46.752Z,0
2016-07-09T02:11:45.608Z,0
2016-07-09T02:12:46.142Z,0
2016-07-09T02:13:46.892Z,0
2016-07-09T02:14:46.782Z,0
2016-07-09T02:15:47.397Z,0
2016-07-09T02:16:48.425Z,0
2016-07-09T02:17:46.203Z,0
2016-07-09T02:18:46.852Z,0
2016-07-09T02:19:45.772Z,0
2016-07-09T02:20:45.643Z,0
2016-07-09T02:21:47.687Z,0
2016-07-09T02:22:46.917Z,0
2016-07-09T02:23:47.587Z,0
2016-07-09T02:24:46.303Z,0
2016-07-09T02:25:46.273Z,0
2016-07-09T02:26:46.966Z,0
2016-07-09T02:27:46.419Z,0
2016-07-09T02:28:46.835Z,0
2016-07-09T02:29:47.078Z,0
2016-07-09T02:30:47.749Z,0
2016-07-09T02:31:47.722Z,0
2016-07-09T02:32:47.131Z,0
2016-07-09T02:33:47.051Z,0
2016-07-09T02:34:47.603Z,0
2016-07-09T02:35:47.501Z,0
2016-07-09T02:36:47.654Z,0
2016-07-09T02:37:46.494Z,0
2016-07-09T02:38:46.190Z,0
2016-07-09T02:39:47.018Z,0
2016-07-09T02:40:48.262Z,0
2016-07-09T02:41:46.249Z,0
2016-07-09T02:42:45.873Z,0
2016-07-09T02:43:47.041Z,0
2016-07-09T02:44:47.922Z,0
2016-07-09T02:45:47.204Z,0
2016-07-09T02:46:48.141Z,0
2016-07-09T02:47:47.765Z,0
2016-07-09T02:48:47.066Z,0
2016-07-09T02:49:47.289Z,0
2016-07-09T02:50:47.482Z,0
2016-07-09T02:51:46.519Z,0
2016-07-09T02:52:47.211Z,0
2016-07-09T02:53:46.615Z,0
2016-07-09T02:54:46.472Z,0
2016-07-09T02:55:47.116Z,0
2016-07-09T02:56:46.519Z,0
2016-07-09T02:57:47.927Z,0
2016-07-09T02:58:47.095Z,0
2016-07-09T02:59:47.668Z,0
2016-07-09T03:00:45.850Z,0
2016-07-09T03:01:46.595Z,0
2016-07-09T03:02:47.829Z,0
2016-07-09T03:03:48.325Z,0
2016-07-09T03:04:46.635Z,0
2016-07-09T03:05:47.440Z,0
2016-07-09T03:06:47.249Z,0
2016-07-09T03:07:47.999Z,0
2016-07-09T03:08:47.813Z,0
2016-07-09T03:09:46.517Z,0
2016-07-09T03:10:47.206Z,0
2016-07-09T03:11:45.988Z,0
2016-07-09T03:12:47.865Z,0
2016-07-09T03:13:47.880Z,0
2016-07-09T03:14:47.432Z,0
2016-07-09T03:15:47.276Z,0
2016-07-09T03:16:46.037Z,0
2016-07-09T03:17:45.922Z,0
2016-07-09T03:18:46.584Z,0
2016-07-09T03:19:48.058Z,0
2016-07-09T03:20:45.946Z,0
2016-07-09T03:21:47.269Z,0
2016-07-09T03:22:46.748Z,0
2016-07-09T03:23:47.295Z,0
2016-07-09T03:24:47.855Z,0
2016-07-09T03:25:46.627Z,0
2016-07-09T03:26:47.390Z,0
2016-07-09T03:27:47.167Z,0
2016-07-09T03:28:47.205Z,0
2016-07-09T03:29:46.681Z,0
2016-07-09T03:30:46.195Z,0
2016-07-09T03:31:47.276Z,0
2016-07-09T03:32:47.383Z,0
2016-07-09T03:33:47.364Z,0
2016-07-09T03:34:46.667Z,0
2016-07-09T03:35:46.740Z,0
2016-07-09T03:36:49.122Z,0
2016-07-09T03:37:47.272Z,0
2016-07-09T03:38:47.377Z,0
2016-07-09T03:39:47.936Z,0
2016-07-09T03:40:47.525Z,0
2016-07-09T03:41:46.839Z,0
2016-07-09T03:42:47.837Z,0
2016-07-09T03:43:46.143Z,0
2016-07-09T03:44:46.820Z,0
2016-07-09T03:45:48.521Z,0
2016-07-09T03:46:47.280Z,0
2016-07-09T03:47:48.217Z,0
2016-07-09T03:48:46.467Z,0
2016-07-09T03:49:47.487Z,0
2016-07-09T03:50:46.756Z,0
2016-07-09T03:51:47.438Z,0
2016-07-09T03:52:47.970Z,0
2016-07-09T03:53:48.185Z,0
2016-07-09T03:54:46.162Z,0
2016-07-09T03:55:46.713Z,0
2016-07-09T03:56:46.220Z,0
2016-07-09T03:57:47.426Z,0
2016-07-09T03:58:46.830Z,0
2016-07-09T03:59:47.497Z,0
2016-07-09T04:00:48.158Z,0
2016-07-09T04:01:46.833Z,0
2016-07-09T04:02:48.108Z,0
2016-07-09T04:03:47.775Z,0
2016-07-09T04:04:47.566Z,0
2016-07-09T04:05:47.597Z,0
2016-07-09T04:06:47.355Z,0
2016-07-09T04:07:48.653Z,0
2016-07-09T04:08:47.726Z,0
2016-07-09T04:09:47.551Z,5
2016-07-09T04:10:46.320Z,5
2016-07-09T04:11:45.643Z,5
2016-07-09T04:12:47.632Z,5
2016-07-09T04:13:47.577Z,5
2016-07-09T04:14:47.077Z,5
2016-07-09T04:15:47.536Z,5
2016-07-09T04:16:47.747Z,5
2016-07-09T04:17:48.707Z,5
2016-07-09T04:18:46.837Z,5
2016-07-09T04:19:46.997Z,5
2016-07-09T04:20:47.634Z,5
2016-07-09T04:21:46.984Z,5
2016-07-09T04:22:46.276Z,10
2016-07-09T04:23:47.521Z,10
2016-07-09T04:24:46.874Z,10
2016-07-09T04:25:46.911Z,10
2016-07-09T04:26:47.668Z,10
2016-07-09T04:27:48.416Z,10
2016-07-09T04:28:47.730Z,10
2016-07-09T04:29:47.791Z,15
2016-07-09T04:30:48.199Z,15
2016-07-09T04:31:47.584Z,10
2016-07-09T04:32:48.367Z,15
2016-07-09T04:33:47.754Z,15
2016-07-09T04:34:46.323Z,10
2016-07-09T04:35:48.326Z,10
2016-07-09T04:36:47.120Z,15
2016-07-09T04:37:46.407Z,15
2016-07-09T04:38:48.181Z,15
2016-07-09T04:39:47.852Z,15
2016-07-09T04:40:46.979Z,15
2016-07-09T04:41:46.565Z,15
2016-07-09T04:42:48.538Z,15
2016-07-09T04:43:47.613Z,15
2016-07-09T04:44:48.473Z,15
2016-07-09T04:45:47.953Z,10
2016-07-09T04:46:47.898Z,10
2016-07-09T04:47:47.651Z,10
2016-07-09T04:48:47.934Z,10
2016-07-09T04:49:48.614Z,10
2016-07-09T04:50:47.660Z,10
2016-07-09T04:51:48.595Z,15
2016-07-09T04:52:48.395Z,15
2016-07-09T04:53:47.126Z,10
2016-07-09T04:54:45.861Z,10
2016-07-09T04:55:47.925Z,10
2016-07-09T04:56:47.070Z,10
2016-07-09T04:57:47.084Z,10
2016-07-09T04:58:47.169Z,10
2016-07-09T04:59:47.825Z,10
2016-07-09T05:00:47.885Z,10
2016-07-09T05:01:46.521Z,10
2016-07-09T05:02:47.382Z,10
2016-07-09T05:03:47.916Z,10
2016-07-09T05:04:47.963Z,10
2016-07-09T05:05:46.516Z,10
2016-07-09T05:06:47.863Z,10
2016-07-09T05:07:46.665Z,10
2016-07-09T05:08:47.917Z,15
2016-07-09T05:09:48.562Z,15
2016-07-09T05:10:47.264Z,10
2016-07-09T05:11:48.488Z,10
2016-07-09T05:12:47.476Z,10
2016-07-09T05:13:47.798Z,10
2016-07-09T05:14:47.208Z,10
2016-07-09T05:15:49.807Z,10
2016-07-09T05:16:47.446Z,10
2016-07-09T05:17:48.039Z,10
2016-07-09T05:18:48.662Z,10
2016-07-09T05:19:48.647Z,10
2016-07-09T05:20:47.521Z,10
2016-07-09T05:21:48.710Z,10
2016-07-09T05:22:47.243Z,10
2016-07-09T05:23:47.977Z,10
2016-07-09T05:24:46.747Z,10
2016-07-09T05:25:47.398Z,10
2016-07-09T05:26:48.020Z,10
2016-07-09T05:27:48.026Z,10
2016-07-09T05:28:47.903Z,10
2016-07-09T05:29:47.282Z,10
2016-07-09T05:30:47.606Z,10
2016-07-09T05:31:46.778Z,10
2016-07-09T05:32:48.074Z,10
2016-07-09T05:33:46.777Z,10
2016-07-09T05:34:46.936Z,10
2016-07-09T05:35:48.049Z,10
2016-07-09T05:36:47.389Z,10
2016-07-09T05:37:46.744Z,10
2016-07-09T05:38:48.078Z,15
2016-07-09T05:39:47.016Z,15
2016-07-09T05:40:48.761Z,20
2016-07-09T05:41:48.689Z,25
2016-07-09T05:42:47.434Z,30
2016-07-09T05:43:46.906Z,30
2016-07-09T05:44:47.448Z,25
2016-07-09T05:45:48.074Z,25
2016-07-09T05:46:48.053Z,25
2016-07-09T05:47:47.632Z,25
2016-07-09T05:48:47.578Z,25
2016-07-09T05:49:48.303Z,25
2016-07-09T05:50:48.292Z,25
2016-07-09T05:51:47.515Z,25
2016-07-09T05:52:49.199Z,25
2016-07-09T05:53:48.243Z,30
2016-07-09T05:54:47.620Z,30
2016-07-09T05:55:48.172Z,30
2016-07-09T05:56:48.761Z,35
2016-07-09T05:57:47.619Z,35
2016-07-09T05:58:47.473Z,35
2016-07-09T05:59:48.137Z,45
2016-07-09T06:00:47.469Z,45
2016-07-09T06:01:47.522Z,50
2016-07-09T06:02:48.854Z,55
2016-07-09T06:03:47.531Z,45
2016-07-09T06:04:47.557Z,45
2016-07-09T06:05:47.544Z,80
2016-07-09T06:06:48.237Z,50
2016-07-09T06:07:47.640Z,45
2016-07-09T06:08:47.574Z,45
2016-07-09T06:09:48.586Z,50
2016-07-09T06:10:47.592Z,50
2016-07-09T06:11:48.904Z,55
2016-07-09T06:12:48.295Z,65
2016-07-09T06:13:48.868Z,65
2016-07-09T06:14:47.574Z,95
2016-07-09T06:15:47.602Z,120
2016-07-09T06:16:47.662Z,100
2016-07-09T06:17:48.929Z,85
2016-07-09T06:18:48.400Z,85
2016-07-09T06:19:48.348Z,185
2016-07-09T06:20:48.323Z,200
2016-07-09T06:21:47.782Z,100
2016-07-09T06:22:47.753Z,105
2016-07-09T06:23:48.266Z,105
2016-07-09T06:24:48.261Z,75
2016-07-09T06:25:48.880Z,65
2016-07-09T06:26:48.331Z,60
2016-07-09T06:27:48.361Z,60
2016-07-09T06:28:48.946Z,65
2016-07-09T06:29:48.891Z,75
2016-07-09T06:30:48.341Z,375
2016-07-09T06:31:47.068Z,140
2016-07-09T06:32:47.918Z,85
2016-07-09T06:33:48.377Z,65
2016-07-09T06:34:49.230Z,65
2016-07-09T06:35:47.893Z,65
2016-07-09T06:36:47.809Z,50
2016-07-09T06:37:47.769Z,40
2016-07-09T06:38:47.826Z,35
2016-07-09T06:39:47.793Z,35
2016-07-09T06:40:49.148Z,35
2016-07-09T06:41:48.389Z,40
2016-07-09T06:42:47.139Z,40
2016-07-09T06:43:48.418Z,45
2016-07-09T06:44:49.074Z,50
2016-07-09T06:45:48.425Z,50
2016-07-09T06:46:48.479Z,50
2016-07-09T06:47:47.783Z,50
2016-07-09T06:48:47.818Z,60
2016-07-09T06:49:47.231Z,50
2016-07-09T06:50:48.548Z,50
2016-07-09T06:51:49.219Z,50
2016-07-09T06:52:47.872Z,55
2016-07-09T06:53:47.211Z,60
2016-07-09T06:54:48.594Z,60
2016-07-09T06:55:47.225Z,60
2016-07-09T06:56:49.310Z,60
2016-07-09T06:57:48.716Z,60
2016-07-09T06:58:47.989Z,60
2016-07-09T06:59:47.244Z,60
2016-07-09T07:00:48.581Z,60
2016-07-09T07:01:47.877Z,80
2016-07-09T07:02:49.132Z,65
2016-07-09T07:03:47.925Z,60
2016-07-09T07:04:49.268Z,60
2016-07-09T07:05:48.124Z,60
2016-07-09T07:06:47.303Z,70
2016-07-09T07:07:49.148Z,255
2016-07-09T07:08:46.691Z,65
2016-07-09T07:09:47.982Z,70
2016-07-09T07:10:47.325Z,70
2016-07-09T07:11:48.040Z,55
2016-07-09T07:12:48.629Z,60
2016-07-09T07:13:47.990Z,65
2016-07-09T07:14:48.668Z,65
2016-07-09T07:15:49.268Z,65
2016-07-09T07:16:49.304Z,70
2016-07-09T07:17:48.684Z,80
2016-07-09T07:18:48.146Z,130
2016-07-09T07:19:48.663Z,195
2016-07-09T07:20:48.028Z,160
2016-07-09T07:21:49.297Z,115
2016-07-09T07:22:48.064Z,90
2016-07-09T07:23:48.702Z,90
2016-07-09T07:24:48.677Z,90
2016-07-09T07:25:46.807Z,95
2016-07-09T07:26:46.812Z,110
2016-07-09T07:27:48.763Z,185
2016-07-09T07:28:49.407Z,940
2016-07-09T07:29:49.361Z,980
2016-07-09T07:30:47.614Z,145
2016-07-09T07:31:48.814Z,245
2016-07-09T07:32:49.348Z,140
2016-07-09T07:33:47.524Z,180
2016-07-09T07:34:49.323Z,575
2016-07-09T07:35:48.198Z,405
2016-07-09T07:36:48.107Z,290
2016-07-09T07:37:48.804Z,175
2016-07-09T07:38:49.468Z,830
2016-07-09T07:39:48.201Z,430
2016-07-09T07:40:48.254Z,1100
2016-07-09T07:41:48.139Z,560
2016-07-09T07:42:49.438Z,885
2016-07-09T07:43:48.796Z,215
2016-07-09T07:44:48.793Z,265
2016-07-09T07:45:47.567Z,285
2016-07-09T07:46:48.790Z,235
2016-07-09T07:47:47.581Z,215
2016-07-09T07:48:48.850Z,235
2016-07-09T07:49:47.714Z,180
2016-07-09T07:50:48.334Z,170
2016-07-09T07:51:48.943Z,155
2016-07-09T07:52:49.614Z,135
2016-07-09T07:53:47.003Z,130
2016-07-09T07:54:48.852Z,130
2016-07-09T07:55:48.244Z,135
2016-07-09T07:56:48.865Z,165
2016-07-09T07:57:48.267Z,180
2016-07-09T07:58:48.266Z,195
2016-07-09T07:59:48.277Z,200
2016-07-09T08:00:48.899Z,210
2016-07-09T08:01:48.902Z,205
2016-07-09T08:02:49.523Z,200
2016-07-09T08:03:47.695Z,195
2016-07-09T08:04:48.923Z,190
2016-07-09T08:05:49.551Z,185
2016-07-09T08:06:48.955Z,185
2016-07-09T08:07:47.724Z,195
2016-07-09T08:08:48.974Z,195
2016-07-09T08:09:47.123Z,195
2016-07-09T08:10:48.468Z,170
2016-07-09T08:11:48.361Z,145
2016-07-09T08:12:48.987Z,150
2016-07-09T08:13:47.773Z,160
2016-07-09T08:14:47.775Z,175
2016-07-09T08:15:48.396Z,175
2016-07-09T08:16:47.794Z,180
2016-07-09T08:17:48.413Z,170
2016-07-09T08:18:48.418Z,180
2016-07-09T08:19:47.811Z,170
2016-07-09T08:20:49.045Z,185
2016-07-09T08:21:49.055Z,155
2016-07-09T08:22:49.675Z,120
2016-07-09T08:23:48.454Z,115
2016-07-09T08:24:49.074Z,105
2016-07-09T08:25:49.696Z,110
2016-07-09T08:26:48.477Z,100
2016-07-09T08:27:48.483Z,90
2016-07-09T08:28:48.493Z,85
2016-07-09T08:29:49.106Z,85
2016-07-09T08:30:49.764Z,100
2016-07-09T08:31:47.281Z,110
2016-07-09T08:32:49.745Z,125
2016-07-09T08:33:49.136Z,130
2016-07-09T08:34:48.530Z,130
2016-07-09T08:35:48.535Z,160
2016-07-09T08:36:47.930Z,185
2016-07-09T08:37:47.936Z,170
2016-07-09T08:38:49.794Z,155
2016-07-09T08:39:49.182Z,145
2016-07-09T08:40:48.576Z,150
2016-07-09T08:41:48.579Z,130
2016-07-09T08:42:49.198Z,105
2016-07-09T08:43:47.990Z,80
2016-07-09T08:44:47.989Z,65
2016-07-09T08:45:49.835Z,65
2016-07-09T08:46:48.003Z,60
2016-07-09T08:47:48.621Z,60
2016-07-09T08:48:48.631Z,65
2016-07-09T08:50:32.045Z,85
2016-07-09T08:50:49.081Z,85
2016-07-09T08:51:49.314Z,95
2016-07-09T08:52:49.320Z,85
2016-07-09T08:53:49.907Z,80
2016-07-09T08:54:49.668Z,80
2016-07-09T08:55:48.725Z,80
2016-07-09T08:56:48.687Z,80
2016-07-09T08:57:49.299Z,85
2016-07-09T08:58:49.310Z,85
2016-07-09T08:59:49.322Z,80
2016-07-09T09:00:48.717Z,75
2016-07-09T09:01:48.725Z,70
2016-07-09T09:02:49.343Z,75
2016-07-09T09:03:48.729Z,80
2016-07-09T09:04:49.969Z,90
2016-07-09T09:05:49.809Z,115
2016-07-09T09:06:48.752Z,145
2016-07-09T09:07:48.146Z,155
2016-07-09T09:08:49.993Z,145
2016-07-09T09:09:48.772Z,130
2016-07-09T09:10:49.402Z,130
2016-07-09T09:11:48.792Z,135
2016-07-09T09:12:48.795Z,140
2016-07-09T09:13:50.031Z,130
2016-07-09T09:14:50.049Z,120
2016-07-09T09:15:48.204Z,110
2016-07-09T09:16:48.807Z,95
2016-07-09T09:17:48.832Z,105
2016-07-09T09:18:48.837Z,120
2016-07-09T09:19:48.232Z,100
2016-07-09T09:20:49.464Z,140
2016-07-09T09:21:48.856Z,135
2016-07-09T09:22:49.488Z,140
2016-07-09T09:23:49.038Z,145
2016-07-09T09:24:48.874Z,155
2016-07-09T09:25:49.487Z,120
2016-07-09T09:26:48.895Z,105
2016-07-09T09:27:48.902Z,95
2016-07-09T09:28:48.910Z,90
2016-07-09T09:29:49.538Z,95
2016-07-09T09:30:48.918Z,105
2016-07-09T09:31:48.925Z,105
2016-07-09T09:32:48.932Z,95
2016-07-09T09:33:49.555Z,75
2016-07-09T09:34:49.959Z,75
2016-07-09T09:35:48.338Z,75
2016-07-09T09:36:49.060Z,80
2016-07-09T09:37:47.740Z,80
2016-07-09T09:38:50.846Z,80
2016-07-09T09:39:48.979Z,90
2016-07-09T09:40:49.003Z,100
2016-07-09T09:41:49.616Z,110
2016-07-09T09:42:49.004Z,100
2016-07-09T09:43:48.397Z,105
2016-07-09T09:44:49.627Z,105
2016-07-09T09:45:50.244Z,110
2016-07-09T09:46:49.031Z,115
2016-07-09T09:47:48.727Z,140
2016-07-09T09:48:48.435Z,145
2016-07-09T09:49:50.565Z,145
2016-07-09T09:50:49.065Z,140
2016-07-09T09:51:49.679Z,135
2016-07-09T09:52:49.075Z,135
2016-07-09T09:53:49.078Z,115
2016-07-09T09:54:49.148Z,120
2016-07-09T09:55:48.532Z,115
2016-07-09T09:56:50.726Z,100
2016-07-09T09:57:49.722Z,95
2016-07-09T09:58:49.249Z,115
2016-07-09T09:59:48.505Z,120
2016-07-09T10:00:50.951Z,125
2016-07-09T10:01:49.745Z,130
2016-07-09T10:02:48.529Z,105
2016-07-09T10:03:49.775Z,100
2016-07-09T10:04:50.375Z,115
2016-07-09T10:05:48.553Z,125
2016-07-09T10:06:49.171Z,115
2016-07-09T10:07:49.173Z,115
2016-07-09T10:08:49.183Z,115
2016-07-09T10:09:50.943Z,105
2016-07-09T10:10:49.195Z,100
2016-07-09T10:11:50.454Z,110
2016-07-09T10:12:48.600Z,105
2016-07-09T10:13:49.221Z,100
2016-07-09T10:14:49.231Z,105
2016-07-09T10:15:49.246Z,120
2016-07-09T10:16:48.013Z,130
2016-07-09T10:17:49.872Z,130
2016-07-09T10:18:49.863Z,120
2016-07-09T10:19:48.653Z,125
2016-07-09T10:20:48.291Z,125
2016-07-09T10:21:49.272Z,125
2016-07-09T10:22:50.459Z,130
2016-07-09T10:23:50.514Z,130
2016-07-09T10:24:49.292Z,130
2016-07-09T10:25:49.913Z,120
2016-07-09T10:26:48.700Z,105
2016-07-09T10:27:48.709Z,95
2016-07-09T10:28:49.323Z,95
2016-07-09T10:29:50.117Z,90
2016-07-09T10:30:49.343Z,90
2016-07-09T10:31:50.558Z,100
2016-07-09T10:32:48.737Z,115
2016-07-09T10:33:49.488Z,110
2016-07-09T10:34:48.760Z,110
2016-07-09T10:35:49.985Z,105
2016-07-09T10:36:49.384Z,115
2016-07-09T10:37:50.001Z,100
2016-07-09T10:38:50.024Z,120
2016-07-09T10:39:48.800Z,115
2016-07-09T10:40:50.972Z,115
2016-07-09T10:41:50.034Z,100
2016-07-09T10:42:50.167Z,95
2016-07-09T10:43:50.039Z,90
2016-07-09T10:44:51.909Z,85
2016-07-09T10:45:49.444Z,80
2016-07-09T10:46:50.064Z,75
2016-07-09T10:47:48.851Z,80
2016-07-09T10:48:49.473Z,85
2016-07-09T10:49:49.474Z,115
2016-07-09T10:50:50.711Z,100
2016-07-09T10:51:51.363Z,95
2016-07-09T10:52:48.935Z,95
2016-07-09T10:53:49.804Z,90
2016-07-09T10:54:49.559Z,85
2016-07-09T10:55:48.794Z,95
2016-07-09T10:56:50.134Z,115
2016-07-09T10:57:50.754Z,115
2016-07-09T10:58:48.929Z,120
2016-07-09T10:59:48.951Z,120
2016-07-09T11:00:50.161Z,120
2016-07-09T11:01:50.173Z,100
2016-07-09T11:02:50.180Z,100
2016-07-09T11:03:49.574Z,85
2016-07-09T11:04:51.620Z,70
2016-07-09T11:05:48.973Z,95
2016-07-09T11:06:50.445Z,105
2016-07-09T11:07:49.606Z,110
2016-07-09T11:08:50.221Z,115
2016-07-09T11:09:50.836Z,115
2016-07-09T11:10:49.633Z,105
2016-07-09T11:11:50.851Z,95
2016-07-09T11:12:50.860Z,85
2016-07-09T11:13:50.259Z,85
2016-07-09T11:14:48.432Z,85
2016-07-09T11:15:51.170Z,75
2016-07-09T11:16:49.057Z,75
2016-07-09T11:17:51.052Z,70
2016-07-09T11:18:50.294Z,70
2016-07-09T11:19:49.687Z,70
2016-07-09T11:20:49.693Z,70
2016-07-09T11:21:50.935Z,75
2016-07-09T11:22:49.705Z,100
2016-07-09T11:23:49.716Z,90
2016-07-09T11:24:49.111Z,105
2016-07-09T11:25:50.342Z,90
2016-07-09T11:26:50.738Z,90
2016-07-09T11:27:50.358Z,85
2016-07-09T11:28:50.363Z,90
2016-07-09T11:29:50.387Z,75
2016-07-09T11:30:49.767Z,75
2016-07-09T11:31:50.380Z,75
2016-07-09T11:32:49.785Z,80
2016-07-09T11:33:49.789Z,80
2016-07-09T11:34:49.177Z,75
2016-07-09T11:35:50.416Z,70
2016-07-09T11:36:49.810Z,75
2016-07-09T11:37:50.925Z,100
2016-07-09T11:38:50.440Z,100
2016-07-09T11:39:50.444Z,80
2016-07-09T11:40:49.842Z,80
2016-07-09T11:41:49.841Z,85
2016-07-09T11:42:49.855Z,105
2016-07-09T11:43:51.080Z,95
2016-07-09T11:44:49.863Z,85
2016-07-09T11:45:50.491Z,85
2016-07-09T11:46:49.874Z,105
2016-07-09T11:47:49.272Z,80
2016-07-09T11:48:50.194Z,80
2016-07-09T11:49:49.895Z,75
2016-07-09T11:50:49.292Z,70
2016-07-09T11:51:49.300Z,65
2016-07-09T11:52:50.531Z,55
2016-07-09T11:53:50.539Z,50
2016-07-09T11:54:50.601Z,45
2016-07-09T11:55:50.553Z,45
2016-07-09T11:56:49.388Z,40
2016-07-09T11:57:49.959Z,40
2016-07-09T11:58:51.190Z,35
2016-07-09T11:59:52.214Z,30
2016-07-09T12:00:49.980Z,30
2016-07-09T12:01:52.015Z,30
2016-07-09T12:02:51.223Z,30
2016-07-09T12:03:51.223Z,35
2016-07-09T12:04:50.007Z,45
2016-07-09T12:05:50.617Z,50
2016-07-09T12:06:50.631Z,50
2016-07-09T12:07:50.020Z,45
2016-07-09T12:08:51.262Z,50
2016-07-09T12:09:50.042Z,55
2016-07-09T12:10:50.205Z,75
2016-07-09T12:11:50.053Z,70
2016-07-09T12:12:51.923Z,65
2016-07-09T12:13:50.676Z,70
2016-07-09T12:14:49.459Z,75
2016-07-09T12:15:50.086Z,80
2016-07-09T12:16:50.085Z,75
2016-07-09T12:17:50.096Z,70
2016-07-09T12:18:50.716Z,70
2016-07-09T12:19:49.496Z,70
2016-07-09T12:20:50.113Z,70
2016-07-09T12:21:50.223Z,75
2016-07-09T12:22:50.126Z,75
2016-07-09T12:23:51.435Z,80
2016-07-09T12:24:50.759Z,95
2016-07-09T12:25:49.536Z,100
2016-07-09T12:26:49.546Z,100
2016-07-09T12:27:50.774Z,100
2016-07-09T12:28:50.779Z,100
2016-07-09T12:29:49.567Z,95
2016-07-09T12:30:50.180Z,90
2016-07-09T12:31:50.816Z,80
2016-07-09T12:32:51.545Z,85
2016-07-09T12:33:50.203Z,75
2016-07-09T12:34:51.448Z,70
2016-07-09T12:35:48.991Z,70
2016-07-09T12:36:48.997Z,75
2016-07-09T12:37:49.620Z,80
2016-07-09T12:38:50.854Z,80
2016-07-09T12:39:50.244Z,75
2016-07-09T12:40:49.645Z,75
2016-07-09T12:41:50.871Z,80
2016-07-09T12:42:49.652Z,85
2016-07-09T12:43:51.087Z,80
2016-07-09T12:44:50.897Z,90
2016-07-09T12:45:50.951Z,90
2016-07-09T12:46:50.915Z,85
2016-07-09T12:47:50.311Z,85
2016-07-09T12:48:49.080Z,80
2016-07-09T12:49:50.327Z,75
2016-07-09T12:50:50.932Z,75
2016-07-09T12:51:50.942Z,75
2016-07-09T12:52:50.343Z,65
2016-07-09T12:53:50.957Z,65
2016-07-09T12:54:51.255Z,60
2016-07-09T12:55:50.973Z,60
2016-07-09T12:56:50.525Z,70
2016-07-09T12:57:50.376Z,70
2016-07-09T12:58:52.059Z,65
2016-07-09T12:59:51.010Z,65
2016-07-09T13:00:49.779Z,70
2016-07-09T13:01:51.016Z,75
2016-07-09T13:02:50.410Z,75
2016-07-09T13:03:49.799Z,70
2016-07-09T13:04:49.808Z,70
2016-07-09T13:05:51.653Z,65
2016-07-09T13:06:51.048Z,65
2016-07-09T13:07:49.878Z,60
2016-07-09T13:08:50.450Z,60
2016-07-09T13:09:51.672Z,60
2016-07-09T13:10:51.074Z,60
2016-07-09T13:11:51.087Z,60
2016-07-09T13:12:50.475Z,60
2016-07-09T13:13:51.103Z,60
2016-07-09T13:14:49.879Z,65
2016-07-09T13:15:51.728Z,65
2016-07-09T13:16:50.568Z,65
2016-07-09T13:17:51.747Z,65
2016-07-09T13:18:52.338Z,65
2016-07-09T13:19:50.532Z,70
2016-07-09T13:20:51.251Z,70
2016-07-09T13:21:50.540Z,70
2016-07-09T13:22:49.933Z,65
2016-07-09T13:23:51.172Z,70
2016-07-09T13:24:50.583Z,65
2016-07-09T13:25:49.958Z,70
2016-07-09T13:26:51.189Z,65
2016-07-09T13:27:50.285Z,65
2016-07-09T13:28:51.206Z,65
2016-07-09T13:29:52.475Z,65
2016-07-09T13:30:50.606Z,65
2016-07-09T13:31:51.232Z,65
2016-07-09T13:32:49.396Z,65
2016-07-09T13:33:50.627Z,65
2016-07-09T13:34:51.867Z,65
2016-07-09T13:35:51.261Z,65
2016-07-09T13:36:51.254Z,65
2016-07-09T13:37:51.294Z,75
2016-07-09T13:38:52.986Z,75
2016-07-09T13:39:51.281Z,75
2016-07-09T13:40:51.984Z,75
2016-07-09T13:41:50.694Z,75
2016-07-09T13:42:51.303Z,75
2016-07-09T13:43:51.312Z,70
2016-07-09T13:44:50.090Z,70
2016-07-09T13:45:50.707Z,70
2016-07-09T13:46:51.344Z,65
2016-07-09T13:47:50.725Z,65
2016-07-09T13:48:50.728Z,65
2016-07-09T13:49:52.333Z,60
2016-07-09T13:50:51.361Z,65
2016-07-09T13:51:51.915Z,60
2016-07-09T13:52:50.762Z,65
2016-07-09T13:53:51.384Z,70
2016-07-09T13:54:51.381Z,70
2016-07-09T13:55:51.393Z,75
2016-07-09T13:56:50.841Z,70
2016-07-09T13:57:50.224Z,65
2016-07-09T13:58:51.464Z,65
2016-07-09T13:59:50.812Z,65
2016-07-09T14:00:52.617Z,65
2016-07-09T14:01:50.820Z,65
2016-07-09T14:02:51.008Z,65
2016-07-09T14:03:50.225Z,65
2016-07-09T14:04:50.575Z,60
2016-07-09T14:05:51.470Z,60
2016-07-09T14:06:50.242Z,60
2016-07-09T14:07:52.088Z,60
2016-07-09T14:08:50.870Z,55
2016-07-09T14:09:50.265Z,55
2016-07-09T14:10:49.661Z,55
2016-07-09T14:11:50.896Z,55
2016-07-09T14:12:51.507Z,50
2016-07-09T14:13:51.971Z,50
2016-07-09T14:14:50.916Z,55
2016-07-09T14:15:51.527Z,55
2016-07-09T14:16:51.535Z,50
2016-07-09T14:17:52.162Z,55
2016-07-09T14:18:50.937Z,60